Terminal Aerodrome Forecast
Issued by NWS

Home | Current Version | Previous Version | Text Only | Print | Product List | Glossary On
Versions: 1 2 3 4 5 6 7 8 9 10 11 12 13 14 15 16 17
000
FTUS41 KPHI 300821 CCA
TAFMIV
TAF COR
KMIV 300821Z 3008/3106 22008KT P6SM VCSH OVC050
      TEMPO 3008/3012 6SM -SNRA OVC035
     FM301200 22010KT P6SM VCSH OVC050
     FM301500 25012G22KT P6SM BKN050
     FM301800 28014G24KT P6SM SCT050 BKN150
     FM302100 29014G24KT P6SM SCT050
     FM302300 29008KT P6SM FEW050=

USA.gov is the U.S. government's official web portal to all federal, state and local government web resources and services.